sensor_id;sensor_type;location;lat;lon;timestamp;temperature;humidity
18932;DHT22;9598;50.954;3.112;2022-10-24T00:03:16;17.50;99.90
18932;DHT22;9598;50.954;3.112;2022-10-24T00:08:18;17.50;99.90
18932;DHT22;9598;50.954;3.112;2022-10-24T00:13:22;17.50;99.90
18932;DHT22;9598;50.954;3.112;2022-10-24T00:18:24;17.40;99.90
18932;DHT22;9598;50.954;3.112;2022-10-24T00:23:26;17.50;99.90
18932;DHT22;9598;50.954;3.112;2022-10-24T00:28:30;17.40;99.90
18932;DHT22;9598;50.954;3.112;2022-10-24T00:33:33;17.40;99.90
18932;DHT22;9598;50.954;3.112;2022-10-24T00:38:35;17.40;99.90
18932;DHT22;9598;50.954;3.112;2022-10-24T00:43:38;17.30;99.90
18932;DHT22;9598;50.954;3.112;2022-10-24T00:48:43;17.30;99.90
18932;DHT22;9598;50.954;3.112;2022-10-24T00:53:49;17.30;99.90
18932;DHT22;9598;50.954;3.112;2022-10-24T00:58:53;17.30;99.90
18932;DHT22;9598;50.954;3.112;2022-10-24T01:03:57;17.20;99.90
18932;DHT22;9598;50.954;3.112;2022-10-24T01:09:06;17.20;99.90
18932;DHT22;9598;50.954;3.112;2022-10-24T01:14:22;17.20;99.90
18932;DHT22;9598;50.954;3.112;2022-10-24T01:25:02;17.10;99.90
18932;DHT22;9598;50.954;3.112;2022-10-24T01:30:09;17.20;99.90
18932;DHT22;9598;50.954;3.112;2022-10-24T01:35:22;17.10;99.90
18932;DHT22;9598;50.954;3.112;2022-10-24T01:40:29;17.00;99.90
18932;DHT22;9598;50.954;3.112;2022-10-24T01:45:37;17.00;99.90
18932;DHT22;9598;50.954;3.112;2022-10-24T01:50:41;17.00;99.90
18932;DHT22;9598;50.954;3.112;2022-10-24T01:55:46;16.90;99.90
18932;DHT22;9598;50.954;3.112;2022-10-24T02:00:52;16.90;99.90
18932;DHT22;9598;50.954;3.112;2022-10-24T02:06:00;16.90;99.90
18932;DHT22;9598;50.954;3.112;2022-10-24T02:11:06;16.90;99.90
18932;DHT22;9598;50.954;3.112;2022-10-24T02:16:10;16.90;99.90
18932;DHT22;9598;50.954;3.112;2022-10-24T02:21:22;16.90;99.90
18932;DHT22;9598;50.954;3.112;2022-10-24T02:26:32;16.80;99.90
18932;DHT22;9598;50.954;3.112;2022-10-24T02:31:40;16.80;99.90
18932;DHT22;9598;50.954;3.112;2022-10-24T02:36:44;16.80;99.90
18932;DHT22;9598;50.954;3.112;2022-10-24T02:41:48;16.80;99.90
18932;DHT22;9598;50.954;3.112;2022-10-24T02:46:55;16.90;99.90
18932;DHT22;9598;50.954;3.112;2022-10-24T02:51:59;16.80;99.90
18932;DHT22;9598;50.954;3.112;2022-10-24T02:57:03;16.90;99.90
18932;DHT22;9598;50.954;3.112;2022-10-24T03:02:07;16.80;99.90
18932;DHT22;9598;50.954;3.112;2022-10-24T03:07:09;16.90;99.90
18932;DHT22;9598;50.954;3.112;2022-10-24T03:12:13;16.90;99.90
18932;DHT22;9598;50.954;3.112;2022-10-24T03:17:17;16.90;99.90
18932;DHT22;9598;50.954;3.112;2022-10-24T03:22:19;16.90;99.90
18932;DHT22;9598;50.954;3.112;2022-10-24T03:27:21;16.90;99.90
18932;DHT22;9598;50.954;3.112;2022-10-24T03:32:25;16.90;99.90
18932;DHT22;9598;50.954;3.112;2022-10-24T03:37:27;16.90;99.90
18932;DHT22;9598;50.954;3.112;2022-10-24T03:42:29;16.90;99.90
18932;DHT22;9598;50.954;3.112;2022-10-24T03:47:33;17.00;99.90
18932;DHT22;9598;50.954;3.112;2022-10-24T03:52:35;16.90;99.90
18932;DHT22;9598;50.954;3.112;2022-10-24T03:57:37;16.90;99.90
18932;DHT22;9598;50.954;3.112;2022-10-24T04:02:40;17.00;99.90
18932;DHT22;9598;50.954;3.112;2022-10-24T04:07:42;16.90;99.90
18932;DHT22;9598;50.954;3.112;2022-10-24T04:12:44;16.90;99.90
18932;DHT22;9598;50.954;3.112;2022-10-24T04:17:48;16.90;99.90
18932;DHT22;9598;50.954;3.112;2022-10-24T04:22:50;17.00;99.90
18932;DHT22;9598;50.954;3.112;2022-10-24T04:27:52;17.00;99.90
18932;DHT22;9598;50.954;3.112;2022-10-24T04:32:55;17.00;99.90
18932;DHT22;9598;50.954;3.112;2022-10-24T04:37:57;17.00;99.90
18932;DHT22;9598;50.954;3.112;2022-10-24T04:42:59;17.00;99.90
18932;DHT22;9598;50.954;3.112;2022-10-24T04:48:03;16.90;99.90
18932;DHT22;9598;50.954;3.112;2022-10-24T04:53:05;16.90;99.90
18932;DHT22;9598;50.954;3.112;2022-10-24T04:58:08;16.90;99.90
18932;DHT22;9598;50.954;3.112;2022-10-24T05:03:11;16.90;99.90
18932;DHT22;9598;50.954;3.112;2022-10-24T05:08:13;16.90;99.90
18932;DHT22;9598;50.954;3.112;2022-10-24T05:13:15;16.80;99.90
18932;DHT22;9598;50.954;3.112;2022-10-24T05:18:19;16.80;99.90
18932;DHT22;9598;50.954;3.112;2022-10-24T05:23:21;16.70;99.90
18932;DHT22;9598;50.954;3.112;2022-10-24T05:28:23;16.70;99.90
18932;DHT22;9598;50.954;3.112;2022-10-24T05:33:27;16.70;99.90
18932;DHT22;9598;50.954;3.112;2022-10-24T05:38:29;16.70;99.90
18932;DHT22;9598;50.954;3.112;2022-10-24T05:43:37;16.60;99.90
18932;DHT22;9598;50.954;3.112;2022-10-24T05:48:41;16.60;99.90
18932;DHT22;9598;50.954;3.112;2022-10-24T05:53:43;16.60;99.90
18932;DHT22;9598;50.954;3.112;2022-10-24T05:58:45;16.60;99.90
18932;DHT22;9598;50.954;3.112;2022-10-24T06:03:48;16.60;99.90
18932;DHT22;9598;50.954;3.112;2022-10-24T06:08:50;16.70;99.90
18932;DHT22;9598;50.954;3.112;2022-10-24T06:13:52;16.60;99.90
18932;DHT22;9598;50.954;3.112;2022-10-24T06:18:56;16.60;99.90
18932;DHT22;9598;50.954;3.112;2022-10-24T06:23:58;16.60;99.90
18932;DHT22;9598;50.954;3.112;2022-10-24T06:29:00;16.60;99.90
18932;DHT22;9598;50.954;3.112;2022-10-24T06:34:04;16.60;99.90
18932;DHT22;9598;50.954;3.112;2022-10-24T06:39:06;16.60;99.90
18932;DHT22;9598;50.954;3.112;2022-10-24T06:44:08;16.50;99.90
18932;DHT22;9598;50.954;3.112;2022-10-24T06:49:12;16.50;99.90
18932;DHT22;9598;50.954;3.112;2022-10-24T06:54:14;16.40;99.90
18932;DHT22;9598;50.954;3.112;2022-10-24T06:59:17;16.50;99.90
18932;DHT22;9598;50.954;3.112;2022-10-24T07:04:20;16.40;99.90
18932;DHT22;9598;50.954;3.112;2022-10-24T07:09:22;16.40;99.90
18932;DHT22;9598;50.954;3.112;2022-10-24T07:14:24;16.40;99.90
18932;DHT22;9598;50.954;3.112;2022-10-24T07:19:29;16.30;99.90
18932;DHT22;9598;50.954;3.112;2022-10-24T07:24:31;16.40;99.90
18932;DHT22;9598;50.954;3.112;2022-10-24T07:29:33;16.30;99.90
18932;DHT22;9598;50.954;3.112;2022-10-24T07:34:38;16.40;99.90
18932;DHT22;9598;50.954;3.112;2022-10-24T07:39:40;16.40;99.90
18932;DHT22;9598;50.954;3.112;2022-10-24T07:44:42;16.40;99.90
18932;DHT22;9598;50.954;3.112;2022-10-24T07:49:46;16.40;99.90
18932;DHT22;9598;50.954;3.112;2022-10-24T07:54:48;16.40;99.90
18932;DHT22;9598;50.954;3.112;2022-10-24T07:59:50;16.40;99.90
18932;DHT22;9598;50.954;3.112;2022-10-24T08:04:53;16.50;99.90
18932;DHT22;9598;50.954;3.112;2022-10-24T08:09:55;16.50;99.90
18932;DHT22;9598;50.954;3.112;2022-10-24T08:14:57;16.50;99.90
18932;DHT22;9598;50.954;3.112;2022-10-24T08:20:01;16.50;99.90
18932;DHT22;9598;50.954;3.112;2022-10-24T08:25:04;16.40;99.90
18932;DHT22;9598;50.954;3.112;2022-10-24T08:30:10;16.40;99.90
18932;DHT22;9598;50.954;3.112;2022-10-24T08:35:17;16.40;99.90
18932;DHT22;9598;50.954;3.112;2022-10-24T08:40:19;16.40;99.90
18932;DHT22;9598;50.954;3.112;2022-10-24T08:45:27;16.40;99.90
18932;DHT22;9598;50.954;3.112;2022-10-24T08:50:33;16.40;99.90
18932;DHT22;9598;50.954;3.112;2022-10-24T08:55:38;16.50;99.90
18932;DHT22;9598;50.954;3.112;2022-10-24T09:00:43;16.60;99.90
18932;DHT22;9598;50.954;3.112;2022-10-24T09:05:48;16.80;99.90
18932;DHT22;9598;50.954;3.112;2022-10-24T09:10:56;16.90;99.90
18932;DHT22;9598;50.954;3.112;2022-10-24T09:15:58;17.00;99.90
18932;DHT22;9598;50.954;3.112;2022-10-24T09:21:02;17.00;99.90
18932;DHT22;9598;50.954;3.112;2022-10-24T09:26:11;17.00;99.90
18932;DHT22;9598;50.954;3.112;2022-10-24T09:31:16;17.00;99.90
18932;DHT22;9598;50.954;3.112;2022-10-24T09:36:21;17.00;99.90
18932;DHT22;9598;50.954;3.112;2022-10-24T09:41:27;17.00;99.90
18932;DHT22;9598;50.954;3.112;2022-10-24T09:46:36;17.00;99.90
18932;DHT22;9598;50.954;3.112;2022-10-24T09:51:44;17.10;99.90
18932;DHT22;9598;50.954;3.112;2022-10-24T09:56:53;17.30;99.90
18932;DHT22;9598;50.954;3.112;2022-10-24T10:02:17;17.40;99.90
18932;DHT22;9598;50.954;3.112;2022-10-24T10:07:26;17.40;99.90
18932;DHT22;9598;50.954;3.112;2022-10-24T10:12:32;17.40;99.90
18932;DHT22;9598;50.954;3.112;2022-10-24T10:17:35;17.40;99.90
18932;DHT22;9598;50.954;3.112;2022-10-24T10:22:50;17.40;99.90
18932;DHT22;9598;50.954;3.112;2022-10-24T10:27:52;17.40;99.90
18932;DHT22;9598;50.954;3.112;2022-10-24T10:33:07;17.50;99.90
18932;DHT22;9598;50.954;3.112;2022-10-24T10:38:25;17.50;99.90
18932;DHT22;9598;50.954;3.112;2022-10-24T10:43:39;17.50;99.90
18932;DHT22;9598;50.954;3.112;2022-10-24T10:48:54;17.50;99.90
18932;DHT22;9598;50.954;3.112;2022-10-24T10:54:08;17.60;99.90
18932;DHT22;9598;50.954;3.112;2022-10-24T10:59:24;17.60;99.90
18932;DHT22;9598;50.954;3.112;2022-10-24T11:04:35;17.70;99.90
18932;DHT22;9598;50.954;3.112;2022-10-24T11:09:42;17.80;99.90
18932;DHT22;9598;50.954;3.112;2022-10-24T11:14:48;17.80;99.90
18932;DHT22;9598;50.954;3.112;2022-10-24T11:20:00;17.80;99.90
18932;DHT22;9598;50.954;3.112;2022-10-24T11:25:14;17.80;99.90
18932;DHT22;9598;50.954;3.112;2022-10-24T11:30:19;17.80;99.90
18932;DHT22;9598;50.954;3.112;2022-10-24T11:35:26;17.80;99.90
18932;DHT22;9598;50.954;3.112;2022-10-24T11:40:30;17.90;99.90
18932;DHT22;9598;50.954;3.112;2022-10-24T11:45:39;18.10;99.90
18932;DHT22;9598;50.954;3.112;2022-10-24T11:50:47;18.20;99.90
18932;DHT22;9598;50.954;3.112;2022-10-24T11:55:56;18.20;99.90
18932;DHT22;9598;50.954;3.112;2022-10-24T12:01:15;18.30;99.90
18932;DHT22;9598;50.954;3.112;2022-10-24T12:06:54;18.40;99.90
18932;DHT22;9598;50.954;3.112;2022-10-24T12:12:14;18.60;99.90
18932;DHT22;9598;50.954;3.112;2022-10-24T12:17:31;18.60;99.90
18932;DHT22;9598;50.954;3.112;2022-10-24T12:22:38;18.60;99.90
18932;DHT22;9598;50.954;3.112;2022-10-24T12:27:42;18.60;99.90
18932;DHT22;9598;50.954;3.112;2022-10-24T12:32:46;18.60;99.90
18932;DHT22;9598;50.954;3.112;2022-10-24T12:37:49;18.50;99.90
18932;DHT22;9598;50.954;3.112;2022-10-24T12:43:15;18.60;99.90
18932;DHT22;9598;50.954;3.112;2022-10-24T12:48:34;18.70;99.90
18932;DHT22;9598;50.954;3.112;2022-10-24T12:53:41;18.80;99.90
18932;DHT22;9598;50.954;3.112;2022-10-24T12:59:15;18.80;99.90
18932;DHT22;9598;50.954;3.112;2022-10-24T13:04:37;18.70;99.90
18932;DHT22;9598;50.954;3.112;2022-10-24T13:09:49;18.70;99.90
18932;DHT22;9598;50.954;3.112;2022-10-24T13:15:12;18.60;99.90
18932;DHT22;9598;50.954;3.112;2022-10-24T13:20:17;18.80;99.90
18932;DHT22;9598;50.954;3.112;2022-10-24T13:25:29;19.00;99.90
18932;DHT22;9598;50.954;3.112;2022-10-24T13:30:34;19.20;99.90
18932;DHT22;9598;50.954;3.112;2022-10-24T13:35:36;19.30;99.90
18932;DHT22;9598;50.954;3.112;2022-10-24T13:40:42;19.30;99.90
18932;DHT22;9598;50.954;3.112;2022-10-24T13:45:54;19.30;99.90
18932;DHT22;9598;50.954;3.112;2022-10-24T13:51:02;19.20;99.90
18932;DHT22;9598;50.954;3.112;2022-10-24T13:56:08;19.20;99.90
18932;DHT22;9598;50.954;3.112;2022-10-24T14:01:17;19.20;99.90
18932;DHT22;9598;50.954;3.112;2022-10-24T14:06:23;19.20;99.90
18932;DHT22;9598;50.954;3.112;2022-10-24T14:11:26;19.10;99.90
18932;DHT22;9598;50.954;3.112;2022-10-24T14:16:32;19.10;99.90
18932;DHT22;9598;50.954;3.112;2022-10-24T14:21:39;19.00;99.90
18932;DHT22;9598;50.954;3.112;2022-10-24T14:26:42;19.00;99.90
18932;DHT22;9598;50.954;3.112;2022-10-24T14:31:53;18.80;99.90
18932;DHT22;9598;50.954;3.112;2022-10-24T14:36:58;18.90;99.90
18932;DHT22;9598;50.954;3.112;2022-10-24T14:42:01;18.90;99.90
18932;DHT22;9598;50.954;3.112;2022-10-24T14:47:16;18.80;99.90
18932;DHT22;9598;50.954;3.112;2022-10-24T14:52:25;18.80;99.90
18932;DHT22;9598;50.954;3.112;2022-10-24T14:57:29;18.90;99.90
18932;DHT22;9598;50.954;3.112;2022-10-24T15:02:35;18.90;99.90
18932;DHT22;9598;50.954;3.112;2022-10-24T15:07:38;18.90;99.90
18932;DHT22;9598;50.954;3.112;2022-10-24T15:12:50;18.80;99.90
18932;DHT22;9598;50.954;3.112;2022-10-24T15:17:56;18.80;99.90
18932;DHT22;9598;50.954;3.112;2022-10-24T15:23:00;18.80;99.90
18932;DHT22;9598;50.954;3.112;2022-10-24T15:28:04;18.70;99.90
18932;DHT22;9598;50.954;3.112;2022-10-24T15:33:08;18.60;99.90
18932;DHT22;9598;50.954;3.112;2022-10-24T15:38:13;18.40;99.90
18932;DHT22;9598;50.954;3.112;2022-10-24T15:43:18;18.30;99.90
18932;DHT22;9598;50.954;3.112;2022-10-24T15:48:22;18.20;99.90
18932;DHT22;9598;50.954;3.112;2022-10-24T15:53:24;17.90;99.90
18932;DHT22;9598;50.954;3.112;2022-10-24T15:58:26;17.70;99.90
18932;DHT22;9598;50.954;3.112;2022-10-24T16:03:31;17.50;99.90
18932;DHT22;9598;50.954;3.112;2022-10-24T16:08:34;17.40;99.90
18932;DHT22;9598;50.954;3.112;2022-10-24T16:13:36;17.30;99.90
18932;DHT22;9598;50.954;3.112;2022-10-24T16:18:39;17.20;99.90
18932;DHT22;9598;50.954;3.112;2022-10-24T16:23:41;17.00;99.90
18932;DHT22;9598;50.954;3.112;2022-10-24T16:28:43;17.00;99.90
18932;DHT22;9598;50.954;3.112;2022-10-24T16:33:47;16.90;99.90
18932;DHT22;9598;50.954;3.112;2022-10-24T16:38:50;16.70;99.90
18932;DHT22;9598;50.954;3.112;2022-10-24T16:43:53;16.60;99.90
18932;DHT22;9598;50.954;3.112;2022-10-24T16:48:57;16.50;99.90
18932;DHT22;9598;50.954;3.112;2022-10-24T16:54:00;16.40;99.90
18932;DHT22;9598;50.954;3.112;2022-10-24T16:59:02;16.40;99.90
18932;DHT22;9598;50.954;3.112;2022-10-24T17:04:06;16.40;99.90
18932;DHT22;9598;50.954;3.112;2022-10-24T17:09:08;16.30;99.90
18932;DHT22;9598;50.954;3.112;2022-10-24T17:14:10;16.30;99.90
18932;DHT22;9598;50.954;3.112;2022-10-24T17:19:15;16.20;99.90
18932;DHT22;9598;50.954;3.112;2022-10-24T17:24:19;16.20;99.90
18932;DHT22;9598;50.954;3.112;2022-10-24T17:29:24;16.20;99.90
18932;DHT22;9598;50.954;3.112;2022-10-24T17:34:29;16.10;99.90
18932;DHT22;9598;50.954;3.112;2022-10-24T17:39:33;16.10;99.90
18932;DHT22;9598;50.954;3.112;2022-10-24T17:44:38;16.10;99.90
18932;DHT22;9598;50.954;3.112;2022-10-24T17:49:42;16.10;99.90
18932;DHT22;9598;50.954;3.112;2022-10-24T17:54:44;16.20;99.90
18932;DHT22;9598;50.954;3.112;2022-10-24T17:59:46;16.10;99.90
18932;DHT22;9598;50.954;3.112;2022-10-24T18:04:51;16.20;99.90
18932;DHT22;9598;50.954;3.112;2022-10-24T18:09:53;16.20;99.90
18932;DHT22;9598;50.954;3.112;2022-10-24T18:15:00;16.10;99.90
18932;DHT22;9598;50.954;3.112;2022-10-24T18:20:04;16.20;99.90
18932;DHT22;9598;50.954;3.112;2022-10-24T18:25:08;16.10;99.90
18932;DHT22;9598;50.954;3.112;2022-10-24T18:30:11;16.10;99.90
18932;DHT22;9598;50.954;3.112;2022-10-24T18:35:14;16.10;99.90
18932;DHT22;9598;50.954;3.112;2022-10-24T18:40:17;16.10;99.90
18932;DHT22;9598;50.954;3.112;2022-10-24T18:45:21;16.10;99.90
18932;DHT22;9598;50.954;3.112;2022-10-24T18:50:25;16.10;99.90
18932;DHT22;9598;50.954;3.112;2022-10-24T18:55:29;16.10;99.90
18932;DHT22;9598;50.954;3.112;2022-10-24T19:00:32;16.20;99.90
18932;DHT22;9598;50.954;3.112;2022-10-24T19:05:41;16.20;99.90
18932;DHT22;9598;50.954;3.112;2022-10-24T19:10:44;16.20;99.90
18932;DHT22;9598;50.954;3.112;2022-10-24T19:15:50;16.20;99.90
18932;DHT22;9598;50.954;3.112;2022-10-24T19:20:54;16.30;99.90
18932;DHT22;9598;50.954;3.112;2022-10-24T19:25:56;16.30;99.90
18932;DHT22;9598;50.954;3.112;2022-10-24T19:30:58;16.30;99.90
18932;DHT22;9598;50.954;3.112;2022-10-24T19:36:04;16.30;99.90
18932;DHT22;9598;50.954;3.112;2022-10-24T19:41:07;16.30;99.90
18932;DHT22;9598;50.954;3.112;2022-10-24T19:46:11;16.30;99.90
18932;DHT22;9598;50.954;3.112;2022-10-24T19:51:15;16.30;99.90
18932;DHT22;9598;50.954;3.112;2022-10-24T19:56:20;16.20;99.90
18932;DHT22;9598;50.954;3.112;2022-10-24T20:01:25;16.20;99.90
18932;DHT22;9598;50.954;3.112;2022-10-24T20:06:28;16.20;99.90
18932;DHT22;9598;50.954;3.112;2022-10-24T20:11:30;16.20;99.90
18932;DHT22;9598;50.954;3.112;2022-10-24T20:16:32;16.10;99.90
18932;DHT22;9598;50.954;3.112;2022-10-24T20:21:36;16.10;99.90
18932;DHT22;9598;50.954;3.112;2022-10-24T20:26:38;16.10;99.90
18932;DHT22;9598;50.954;3.112;2022-10-24T20:31:43;16.10;99.90
18932;DHT22;9598;50.954;3.112;2022-10-24T20:36:47;16.00;99.90
18932;DHT22;9598;50.954;3.112;2022-10-24T20:41:49;16.00;99.90
18932;DHT22;9598;50.954;3.112;2022-10-24T20:46:51;16.00;99.90
18932;DHT22;9598;50.954;3.112;2022-10-24T20:51:56;16.00;99.90
18932;DHT22;9598;50.954;3.112;2022-10-24T20:56:58;16.00;99.90
18932;DHT22;9598;50.954;3.112;2022-10-24T21:02:00;15.90;99.90
18932;DHT22;9598;50.954;3.112;2022-10-24T21:07:05;15.90;99.90
18932;DHT22;9598;50.954;3.112;2022-10-24T21:12:09;15.90;99.90
18932;DHT22;9598;50.954;3.112;2022-10-24T21:17:11;15.90;99.90
18932;DHT22;9598;50.954;3.112;2022-10-24T21:22:14;15.80;99.90
18932;DHT22;9598;50.954;3.112;2022-10-24T21:27:16;15.80;99.90
18932;DHT22;9598;50.954;3.112;2022-10-24T21:32:18;15.80;99.90
18932;DHT22;9598;50.954;3.112;2022-10-24T21:37:22;15.80;99.90
18932;DHT22;9598;50.954;3.112;2022-10-24T21:42:24;15.80;99.90
18932;DHT22;9598;50.954;3.112;2022-10-24T21:47:27;15.70;99.90
18932;DHT22;9598;50.954;3.112;2022-10-24T21:52:30;15.70;99.90
18932;DHT22;9598;50.954;3.112;2022-10-24T21:57:33;15.60;99.90
18932;DHT22;9598;50.954;3.112;2022-10-24T22:02:35;15.60;99.90
18932;DHT22;9598;50.954;3.112;2022-10-24T22:07:38;15.60;99.90
18932;DHT22;9598;50.954;3.112;2022-10-24T22:12:40;15.60;99.90
18932;DHT22;9598;50.954;3.112;2022-10-24T22:17:42;15.60;99.90
18932;DHT22;9598;50.954;3.112;2022-10-24T22:22:46;15.60;99.90
18932;DHT22;9598;50.954;3.112;2022-10-24T22:27:48;15.60;99.90
18932;DHT22;9598;50.954;3.112;2022-10-24T22:32:50;15.60;99.90
18932;DHT22;9598;50.954;3.112;2022-10-24T22:37:54;15.60;99.90
18932;DHT22;9598;50.954;3.112;2022-10-24T22:42:56;15.60;99.90
18932;DHT22;9598;50.954;3.112;2022-10-24T22:48:09;15.60;99.90
18932;DHT22;9598;50.954;3.112;2022-10-24T22:53:16;15.60;99.90
18932;DHT22;9598;50.954;3.112;2022-10-24T22:58:19;15.60;99.90
18932;DHT22;9598;50.954;3.112;2022-10-24T23:03:31;15.60;99.90
18932;DHT22;9598;50.954;3.112;2022-10-24T23:08:39;15.60;99.90
18932;DHT22;9598;50.954;3.112;2022-10-24T23:13:43;15.60;99.90
18932;DHT22;9598;50.954;3.112;2022-10-24T23:18:46;15.60;99.90
18932;DHT22;9598;50.954;3.112;2022-10-24T23:23:50;15.60;99.90
18932;DHT22;9598;50.954;3.112;2022-10-24T23:28:57;15.60;99.90
18932;DHT22;9598;50.954;3.112;2022-10-24T23:34:00;15.60;99.90
18932;DHT22;9598;50.954;3.112;2022-10-24T23:39:04;15.60;99.90
18932;DHT22;9598;50.954;3.112;2022-10-24T23:44:08;15.60;99.90
18932;DHT22;9598;50.954;3.112;2022-10-24T23:49:18;15.60;99.90
18932;DHT22;9598;50.954;3.112;2022-10-24T23:54:25;15.60;99.90
18932;DHT22;9598;50.954;3.112;2022-10-24T23:59:30;15.60;99.90
